Latest Weather Observations for Fingal

IDT60801

Issued at 11:35 pm EST Friday 1 August 2014 (issued every 30 minutes, with the page automatically refreshed every 10 minutes)

About weather observations | Map of weather stations | Latest weather observations for TAS | Other Formats
Station Details ID: 092012 Name: FINGAL (LEGGE STREET) Lat: -41.64 Lon: 147.97 Height: 237.0 m
Data from the previous 72 hours. | See also: Recent months at Fingal
Date/Time
EST
Temp
°C
App
Temp
°C
Dew
Point
Rel
Hum
%
Delta-T
°C
Wind Press
QNH
hPa
Press
MSL
hPa
Rain
since 9 am
mm
Dir
 
Spd
km/h
Gust
km/h
Spd
kts
Gust
kts
01/11:30pm 3.3 -2.1 -1.4 71 1.7 WSW 17 33 9 18 - - 3.8
01/11:00pm 3.6 -1.8 -1.3 70 1.8 WSW 17 28 9 15 - - 3.8
01/10:30pm 3.8 -1.2 -1.2 70 1.8 WSW 15 28 8 15 - - 3.8
01/10:00pm 4.0 -1.0 -1.0 70 1.9 WSW 15 22 8 12 - - 3.8
01/09:30pm 4.7 -1.3 -1.5 64 2.3 SW 20 41 11 22 - - 3.8
01/09:00pm 4.5 -1.3 -1.3 66 2.2 SW 19 33 10 18 - - 3.8
01/08:30pm 4.8 -1.2 -1.2 65 2.2 SW 20 46 11 25 - - 3.8
01/08:00pm 5.1 -1.6 -1.1 64 2.3 SW 24 41 13 22 - - 3.8
01/07:30pm 5.0 -2.1 -1.0 65 2.3 SW 26 50 14 27 - - 3.8
01/07:00pm 4.3 -0.9 -0.1 73 1.7 SW 17 30 9 16 - - 3.8
01/06:30pm 4.2 -0.6 0.2 75 1.5 WSW 15 22 8 12 - - 3.8
01/06:00pm 4.2 -0.6 0.5 77 1.4 SW 15 28 8 15 - - 3.8
01/05:30pm 4.3 -0.1 0.6 77 1.4 WSW 13 26 7 14 - - 3.8
01/05:00pm 4.4 -0.3 0.7 77 1.4 SSW 15 26 8 14 - - 3.6
01/04:30pm 4.1 -0.9 1.1 81 1.2 SW 17 28 9 15 - - 3.2
01/04:00pm 4.6 -0.4 1.1 78 1.4 SW 17 32 9 17 - - 1.6
01/03:30pm 4.9 1.2 2.1 82 1.1 SW 11 20 6 11 - - 0.8
01/03:00pm 5.5 1.3 1.6 76 1.6 WSW 13 22 7 12 - - 0.2
01/02:30pm 7.3 2.3 1.2 65 2.5 SSW 17 26 9 14 - - 0.0
01/02:00pm 9.8 4.3 -1.9 44 4.6 W 17 28 9 15 - - 0.0
01/01:30pm 9.9 5.2 -1.8 44 4.6 W 13 22 7 12 - - 0.0
01/01:00pm 9.9 3.9 -3.0 40 4.9 SW 19 30 10 16 - - 0.0
01/12:30pm 10.0 4.4 -3.3 39 5.0 SW 17 26 9 14 - - 0.0
01/12:00pm 10.0 4.2 -4.4 36 5.3 SW 17 32 9 17 - - 0.0
01/11:30am 9.8 3.5 -4.2 37 5.2 SW 20 26 11 14 - - 0.0
01/11:00am 9.7 5.6 -2.9 41 4.8 W 9 19 5 10 - - 0.0
01/10:30am 9.4 5.4 -2.2 44 4.5 NNW 9 13 5 7 - - 0.0
01/10:00am 8.7 4.6 -0.1 54 3.5 NNW 11 13 6 7 - - 0.0
01/09:30am 8.2 3.4 -2.7 46 4.1 W 13 24 7 13 - - 0.0
01/09:00am 7.1 1.2 -2.1 52 3.5 W 19 30 10 16 - - 4.8
01/08:30am 6.1 1.4 -1.8 57 3.0 SSW 13 24 7 13 - - 4.8
01/08:00am 4.2 1.0 -0.2 73 1.7 S 6 22 3 12 - - 4.8
01/07:30am 3.1 -0.4 -1.6 71 1.7 E 7 13 4 7 - - 4.8
01/07:00am 3.2 -0.7 -1.3 72 1.6 ESE 9 15 5 8 - - 4.8
01/06:30am 4.7 0.9 -1.1 66 2.2 NNE 9 15 5 8 - - 4.8
01/06:00am 5.3 0.7 -0.9 64 2.3 NNW 13 20 7 11 - - 4.8
01/05:30am 5.4 0.7 -1.5 61 2.6 NNW 13 20 7 11 - - 4.8
01/05:00am 5.6 1.7 -1.8 59 2.7 NW 9 19 5 10 - - 4.8
01/04:30am 5.4 1.4 -2.0 59 2.7 NW 9 17 5 9 - - 4.8
01/04:00am 5.9 0.4 -2.4 55 3.0 W 17 28 9 15 - - 4.8
01/03:30am 5.8 0.5 -3.3 52 3.3 WNW 15 26 8 14 - - 4.8
01/03:00am 5.8 -0.2 -2.8 54 3.1 WNW 19 28 10 15 - - 4.8
01/02:30am 5.7 -0.2 -2.4 56 3.0 WNW 19 35 10 19 - - 4.8
01/02:00am 5.2 1.5 -2.8 56 2.9 NNW 7 11 4 6 - - 4.8
01/01:30am 5.9 -0.1 -2.9 53 3.2 NW 19 30 10 16 - - 4.8
01/01:00am 6.0 -0.9 -2.6 54 3.1 WNW 24 39 13 21 - - 4.8
01/12:30am 5.9 -0.6 -2.4 55 3.0 NW 22 35 12 19 - - 4.8
01/12:00am 5.8 -0.4 -3.0 53 3.2 NW 20 33 11 18 - - 4.8
 
Date/Time
EST
Temp
°C
App
Temp
°C
Dew
Point
Rel
Hum
%
Delta-T
°C
Wind Press
QNH
hPa
Press
MSL
hPa
Rain
since 9 am
mm
Dir
 
Spd
km/h
Gust
km/h
Spd
kts
Gust
kts
31/11:30pm 6.4 -1.3 -3.0 51 3.4 WNW 28 43 15 23 - - 4.8
31/11:00pm 6.7 -0.4 -1.4 56 3.1 WNW 26 39 14 21 - - 4.8
31/10:30pm 6.5 -0.2 -1.2 58 2.9 NW 24 35 13 19 - - 4.8
31/10:00pm 5.3 -2.7 0.3 70 2.0 NW 32 48 17 26 - - 4.8
31/09:30pm 7.5 1.0 -2.2 50 3.6 NW 22 43 12 23 - - 4.8
31/09:00pm 7.4 0.9 -2.3 50 3.6 NW 22 39 12 21 - - 4.8
31/08:30pm 7.1 1.4 -0.8 57 3.1 NW 19 26 10 14 - - 4.8
31/08:00pm 6.2 1.2 1.1 70 2.1 NNW 17 28 9 15 - - 4.8
31/07:30pm 7.3 1.6 0.5 62 2.7 WNW 20 32 11 17 - - 4.8
31/07:00pm 8.2 0.8 -0.8 53 3.5 WNW 28 50 15 27 - - 4.8
31/06:30pm 8.0 1.5 0.3 58 3.1 NW 24 43 13 23 - - 4.8
31/06:00pm 7.4 1.1 1.5 66 2.4 N 24 32 13 17 - - 4.8
31/05:30pm 7.5 1.7 2.4 70 2.1 NW 22 37 12 20 - - 4.6
31/05:00pm 7.7 2.3 2.6 70 2.2 NW 20 32 11 17 - - 4.6
31/04:30pm 8.6 2.5 3.0 68 2.4 WNW 24 41 13 22 - - 4.4
31/04:00pm 9.5 3.1 3.0 64 2.8 WNW 26 44 14 24 - - 4.4
31/03:30pm 9.5 6.7 5.1 74 2.0 W 9 15 5 8 - - 4.4
31/03:00pm 10.0 5.1 5.2 72 2.2 WNW 20 37 11 20 - - 4.2
31/02:30pm 11.1 5.5 7.2 77 1.9 NW 26 39 14 21 - - 4.0
31/02:00pm 11.1 4.4 7.4 78 1.8 NNW 32 54 17 29 - - 3.4
31/01:30pm 12.3 5.2 6.6 68 2.8 NNW 33 56 18 30 - - 3.0
31/01:00pm 11.8 5.0 6.9 72 2.4 NNW 32 50 17 27 - - 2.8
31/12:30pm 11.6 5.2 6.9 73 2.3 NNW 30 57 16 31 - - 2.8
31/12:00pm 11.4 4.0 6.7 73 2.3 NNW 35 69 19 37 - - 2.2
31/11:30am 12.6 6.4 6.2 65 3.1 NNW 28 50 15 27 - - 1.8
31/11:00am 11.5 5.2 7.4 76 2.0 NNW 30 46 16 25 - - 1.4
31/10:30am 11.4 5.1 7.3 76 2.0 NNW 30 46 16 25 - - 1.2
31/10:00am 11.5 4.9 7.6 77 1.9 NNW 32 52 17 28 - - 0.6
31/09:30am 11.8 6.0 6.3 69 2.6 NW 26 43 14 23 - - 0.2
31/09:00am 12.5 5.0 6.1 65 3.1 NW 35 57 19 31 - - 11.4
31/08:30am 12.1 4.8 7.4 73 2.3 NW 35 63 19 34 - - 11.4
31/08:00am 11.4 8.0 7.7 78 1.8 NNW 15 30 8 16 - - 10.8
31/07:30am 12.1 6.9 7.4 73 2.3 NW 24 48 13 26 - - 10.0
31/07:00am 11.3 7.6 7.8 79 1.7 NNW 17 24 9 13 - - 9.6
31/06:30am 12.3 8.3 6.8 69 2.7 NNW 17 28 9 15 - - 9.4
31/06:00am 12.8 5.6 5.9 63 3.3 NW 33 69 18 37 - - 9.4
31/05:30am 12.5 5.7 6.8 68 2.8 NW 32 57 17 31 - - 9.2
31/05:00am 12.0 6.1 7.7 75 2.1 NW 28 44 15 24 - - 9.2
31/04:30am 10.6 6.8 7.7 82 1.4 W 17 26 9 14 - - 7.8
31/04:00am 10.9 5.0 7.4 79 1.7 NNW 28 56 15 30 - - 6.2
31/03:30am 11.1 6.9 7.4 78 1.8 NW 19 37 10 20 - - 5.2
31/03:00am 11.7 5.5 8.0 78 1.8 NW 30 52 16 28 - - 4.4
31/02:30am 11.9 6.6 8.4 79 1.7 NNW 26 46 14 25 - - 3.2
31/02:00am 11.3 8.4 8.0 80 1.6 N 13 24 7 13 - - 2.4
31/01:30am 11.7 8.3 7.8 77 1.9 N 15 22 8 12 - - 1.8
31/01:00am 12.2 7.5 7.9 75 2.1 NW 22 46 12 25 - - 1.2
31/12:30am 11.8 6.7 7.5 75 2.1 NW 24 44 13 24 - - 0.8
31/12:00am 12.6 7.2 6.4 66 3.0 NW 24 39 13 21 - - 0.2
 
Date/Time
EST
Temp
°C
App
Temp
°C
Dew
Point
Rel
Hum
%
Delta-T
°C
Wind Press
QNH
hPa
Press
MSL
hPa
Rain
since 9 am
mm
Dir
 
Spd
km/h
Gust
km/h
Spd
kts
Gust
kts
30/11:30pm 12.8 6.1 5.7 62 3.4 NW 30 54 16 29 - - 0.2
30/11:00pm 11.8 6.8 6.5 70 2.5 NW 22 37 12 20 - - 0.2
30/10:30pm 13.2 7.1 4.9 57 3.9 WNW 26 35 14 19 - - 0.0
30/10:00pm 12.4 8.4 6.7 68 2.8 NW 17 37 9 20 - - 0.0
30/09:30pm 13.7 6.5 4.8 55 4.2 WNW 32 67 17 36 - - 0.0
30/09:00pm 13.8 5.1 3.9 51 4.6 NW 39 70 21 38 - - 0.0
30/08:30pm 12.3 8.0 6.8 69 2.7 NW 19 37 10 20 - - 0.0
30/08:00pm 13.5 7.0 4.9 56 4.0 WNW 28 52 15 28 - - 0.0
30/07:30pm 13.0 8.1 4.9 58 3.8 NW 20 39 11 21 - - 0.0
30/07:00pm 12.3 7.5 5.5 63 3.2 WNW 20 46 11 25 - - 0.0
30/06:30pm 13.2 7.1 4.9 57 3.9 WNW 26 43 14 23 - - 0.0
30/06:00pm 12.1 8.1 6.6 69 2.6 WNW 17 30 9 16 - - 0.0
30/05:30pm 13.8 6.9 4.7 54 4.3 WNW 30 54 16 29 - - 0.0
30/05:00pm 13.3 8.7 5.5 59 3.7 NW 19 39 10 21 - - 0.0
30/04:30pm 13.4 7.9 5.8 60 3.6 WNW 24 33 13 18 - - 0.0
30/04:00pm 13.7 10.7 6.1 60 3.7 W 11 20 6 11 - - 0.0
30/03:30pm 13.8 8.2 5.4 57 4.0 WNW 24 35 13 19 - - 0.0
30/03:00pm 13.3 8.9 6.6 64 3.3 NW 19 33 10 18 - - 0.0
30/02:30pm 14.1 9.5 5.5 56 4.1 NW 19 28 10 15 - - 0.0
30/02:00pm 14.0 9.0 4.6 53 4.4 WNW 20 24 11 13 - - 0.0
30/01:30pm 13.9 9.7 5.8 58 3.9 NNW 17 26 9 14 - - 0.0
30/01:00pm 13.8 8.8 4.7 54 4.3 NNW 20 35 11 19 - - 0.0
30/12:30pm 13.7 8.2 3.8 51 4.5 NW 22 39 12 21 - - 0.0
30/12:00pm 13.7 7.1 4.3 53 4.4 NW 28 46 15 25 - - 0.0
30/11:30am 13.8 7.8 3.6 50 4.7 NW 24 44 13 24 - - 0.0
30/11:00am 13.1 8.0 4.0 54 4.2 WNW 20 41 11 22 - - 0.0
30/10:30am 13.4 8.1 2.9 49 4.7 NW 20 30 11 16 - - 0.0
30/10:00am 13.5 8.1 2.4 47 4.9 NW 20 33 11 18 - - 0.0
30/09:30am 12.3 8.3 2.7 52 4.3 NW 13 24 7 13 - - 0.0
30/09:00am 11.7 6.8 2.2 52 4.1 WNW 17 33 9 18 - - 7.0
30/08:30am 10.8 6.4 2.6 57 3.6 NW 15 28 8 15 - - 7.0
30/08:00am 10.3 6.9 1.7 55 3.7 NNW 9 20 5 11 - - 7.0
30/07:30am 9.5 5.1 0.4 53 3.7 N 13 28 7 15 - - 7.0
30/07:00am 9.7 5.2 -0.2 50 4.0 WNW 13 22 7 12 - - 7.0
30/06:30am 9.8 4.1 -0.4 49 4.1 W 19 33 10 18 - - 7.0
30/06:00am 9.7 4.4 -0.5 49 4.1 W 17 32 9 17 - - 7.0
30/05:30am 10.0 3.4 -0.5 48 4.2 WNW 24 41 13 22 - - 7.0
30/05:00am 10.2 4.0 -0.3 48 4.3 W 22 48 12 26 - - 7.0
30/04:30am 10.3 4.2 0.6 51 4.0 W 22 37 12 20 - - 7.0
30/04:00am 10.6 4.5 0.6 50 4.2 W 22 44 12 24 - - 7.0
30/03:30am 10.8 3.5 0.2 48 4.4 WNW 28 46 15 25 - - 7.0
30/03:00am 10.8 2.8 0.2 48 4.4 WNW 32 48 17 26 - - 7.0
30/02:30am 11.0 3.0 0.1 47 4.5 WNW 32 57 17 31 - - 7.0
30/02:00am 10.8 3.0 1.4 52 4.0 WNW 32 50 17 27 - - 7.0
30/01:30am 11.1 2.0 1.6 52 4.1 WNW 39 57 21 31 - - 7.0
30/01:00am 11.0 2.4 2.6 56 3.7 WNW 37 63 20 34 - - 7.0
30/12:30am 11.0 3.4 2.8 57 3.6 WNW 32 54 17 29 - - 7.0
30/12:00am 11.6 3.2 1.8 51 4.2 WNW 35 52 19 28 - - 7.0

Other Formats:

Comma delimited format used in spreadsheet applications
http://www.bom.gov.au/fwo/IDT60801/IDT60801.95974.axf

JavaScript Object Notation format (JSON) in row-major order
http://www.bom.gov.au/fwo/IDT60801/IDT60801.95974.json